Coyote, New Mexico
Current Conditions -  °F | °C
As of 1:55 PM on Tuesday 21 Oct 2014 (Local Time) from KLAM Reporting Station
Overcast Overcast  
Wind Chill: 53°   Ceiling: 6500
Heat Index: 53°   Visibility: 10mi
Dew Point: 46°   Wind: 5mph
Humidity: 76%   Direction: 160°SSE
Pressure: 30.19"   Gusts: NA
Location:  36.17°N, 106.62°W
Report Text: KLAM 211955Z AUTO 16004KT 10SM OVC065 12/08 A3019 RMK AO2 T01180077
Loading
Personal Weather Stations






























Interactive Weather Map
Tropical Storm Tracking
New forecast layout! Learn more

10-Day Weather Forecast

Advertisements
Track Severe Weather on mobile